createdAt,value
2023-02-21T00:04:49.501Z,9.57
2023-02-21T00:10:10.178Z,8.68
2023-02-21T00:15:31.886Z,8.43
2023-02-21T00:20:52.234Z,9.62
2023-02-21T00:26:13.050Z,9.45
2023-02-21T00:31:38.068Z,8.34
2023-02-21T00:36:58.283Z,8.72
2023-02-21T00:42:18.572Z,9.40
2023-02-21T00:47:40.537Z,9.49
2023-02-21T00:53:00.730Z,9.32
2023-02-21T00:58:22.854Z,9.15
2023-02-21T01:03:44.616Z,9.38
2023-02-21T01:09:08.410Z,9.39
2023-02-21T01:14:28.635Z,8.79
2023-02-21T01:19:50.192Z,9.62
2023-02-21T01:25:12.056Z,9.51
2023-02-21T01:30:32.602Z,9.10
2023-02-21T01:35:54.154Z,8.98
2023-02-21T01:41:16.044Z,9.21
2023-02-21T01:46:37.928Z,9.11
2023-02-21T01:52:01.787Z,8.64
2023-02-21T01:57:24.053Z,7.69
2023-02-21T02:02:49.879Z,8.96
2023-02-21T02:08:19.781Z,8.09
2023-02-21T02:13:36.448Z,7.56
2023-02-21T02:19:17.638Z,8.98
2023-02-21T02:24:40.851Z,8.56
2023-02-21T02:30:04.763Z,8.58
2023-02-21T02:35:14.490Z,8.85
2023-02-21T02:40:28.699Z,8.78
2023-02-21T02:45:37.959Z,8.87
2023-02-21T02:50:42.560Z,8.54
2023-02-21T02:55:51.613Z,8.50
2023-02-21T03:01:20.201Z,8.82
2023-02-21T03:06:31.314Z,8.83
2023-02-21T03:11:34.115Z,8.91
2023-02-21T03:16:42.479Z,8.68
2023-02-21T03:21:51.661Z,8.76
2023-02-21T03:26:58.937Z,8.96
2023-02-21T03:32:31.069Z,8.82
2023-02-21T03:37:38.028Z,9.17
2023-02-21T03:42:41.251Z,8.67
2023-02-21T03:47:44.519Z,8.75
2023-02-21T03:52:48.744Z,8.84
2023-02-21T03:57:51.644Z,8.78
2023-02-21T04:02:56.429Z,8.77
2023-02-21T04:08:25.630Z,9.21
2023-02-21T04:13:30.505Z,8.67
2023-02-21T04:18:36.224Z,9.11
2023-02-21T04:23:42.308Z,9.12
2023-02-21T04:28:45.058Z,9.23
2023-02-21T04:33:47.932Z,8.75
2023-02-21T04:38:58.648Z,9.13
2023-02-21T04:44:01.502Z,9.18
2023-02-21T04:49:08.190Z,9.22
2023-02-21T04:54:13.997Z,9.04
2023-02-21T04:59:16.835Z,8.89
2023-02-21T05:04:19.942Z,8.95
2023-02-21T05:09:23.991Z,8.74
2023-02-21T05:14:30.765Z,8.64
2023-02-21T05:19:38.233Z,8.93
2023-02-21T05:24:43.564Z,9.07
2023-02-21T05:29:48.485Z,9.09
2023-02-21T05:34:51.167Z,8.05
2023-02-21T05:39:55.284Z,9.05
2023-02-21T05:44:58.394Z,8.44
2023-02-21T05:50:01.058Z,8.83
2023-02-21T05:55:05.390Z,9.17
2023-02-21T06:00:09.213Z,9.36
2023-02-21T06:05:17.500Z,9.15
2023-02-21T06:10:22.099Z,8.73
2023-02-21T06:15:24.883Z,9.00
2023-02-21T06:20:30.373Z,8.40
2023-02-21T06:25:36.497Z,8.48
2023-02-21T06:30:39.346Z,8.48
2023-02-21T06:35:42.076Z,8.13
2023-02-21T06:40:46.208Z,8.32
2023-02-21T06:45:48.978Z,6.96
2023-02-21T06:50:54.607Z,8.37
2023-02-21T06:55:58.665Z,8.48
2023-02-21T07:01:01.603Z,8.29
2023-02-21T07:06:04.670Z,8.24
2023-02-21T07:11:09.538Z,7.81
2023-02-21T07:16:14.368Z,8.05
2023-02-21T07:21:18.312Z,8.60
2023-02-21T07:26:22.301Z,8.44
2023-02-21T07:31:27.610Z,8.73
2023-02-21T07:36:30.442Z,8.58
2023-02-21T07:41:35.075Z,8.24
2023-02-21T07:46:37.924Z,8.35
2023-02-21T07:51:40.846Z,8.37
2023-02-21T07:56:52.145Z,7.66
2023-02-21T08:01:55.630Z,7.98
2023-02-21T08:07:00.703Z,8.07
2023-02-21T08:12:05.160Z,8.50
2023-02-21T08:17:11.263Z,8.29
2023-02-21T08:22:14.596Z,8.05
2023-02-21T08:27:18.762Z,8.15
2023-02-21T08:32:21.629Z,8.08
2023-02-21T08:37:24.464Z,8.15
2023-02-21T08:42:30.891Z,8.01
2023-02-21T08:47:36.058Z,7.71
2023-02-21T08:52:41.672Z,8.00
2023-02-21T08:57:45.816Z,8.01
2023-02-21T09:02:51.860Z,7.63
2023-02-21T09:07:58.865Z,8.70
2023-02-21T09:13:03.952Z,8.78
2023-02-21T09:18:07.530Z,8.77
2023-02-21T09:23:10.762Z,8.75
2023-02-21T09:28:15.153Z,8.88
2023-02-21T09:33:18.790Z,8.75
2023-02-21T09:38:21.882Z,8.75
2023-02-21T09:43:33.229Z,8.19
2023-02-21T09:48:41.469Z,8.52
2023-02-21T09:53:47.354Z,8.35
2023-02-21T09:58:51.772Z,8.60
2023-02-21T10:04:05.725Z,8.45
2023-02-21T10:09:21.111Z,8.41
2023-02-21T10:14:41.865Z,7.89
2023-02-21T10:19:54.968Z,8.03
2023-02-21T10:25:04.950Z,8.94
2023-02-21T10:30:16.624Z,8.17
2023-02-21T10:35:19.577Z,8.94
2023-02-21T10:40:34.714Z,8.95
2023-02-21T10:45:45.495Z,9.54
2023-02-21T10:50:53.213Z,8.82
2023-02-21T10:56:25.264Z,8.90
2023-02-21T11:01:39.667Z,9.49
2023-02-21T11:06:47.583Z,9.59
2023-02-21T11:12:01.349Z,9.69
2023-02-21T11:17:23.752Z,10.19
2023-02-21T11:22:41.504Z,9.84
2023-02-21T11:27:46.522Z,9.58
2023-02-21T11:32:56.980Z,9.59
2023-02-21T11:38:02.540Z,7.54
2023-02-21T11:43:24.800Z,9.98
2023-02-21T11:48:45.338Z,10.14
2023-02-21T11:53:50.357Z,8.96
2023-02-21T11:59:02.436Z,10.23
2023-02-21T12:04:24.348Z,10.44
2023-02-21T12:09:36.787Z,10.36
2023-02-21T12:14:49.780Z,10.41
2023-02-21T12:20:16.062Z,10.56
2023-02-21T12:25:27.477Z,10.31
2023-02-21T12:30:44.182Z,10.24
2023-02-21T12:36:15.516Z,10.20
2023-02-21T12:41:42.322Z,10.45
2023-02-21T12:46:53.533Z,10.53
2023-02-21T12:52:03.437Z,10.48
2023-02-21T12:57:12.193Z,10.04
2023-02-21T13:02:24.757Z,10.25
2023-02-21T13:07:37.297Z,10.32
2023-02-21T13:12:45.956Z,10.69
2023-02-21T13:17:59.557Z,10.29
2023-02-21T13:23:40.353Z,10.38
2023-02-21T13:28:44.423Z,10.56
2023-02-21T13:33:52.508Z,9.92
2023-02-21T13:39:03.571Z,10.28
2023-02-21T13:44:10.672Z,10.22
2023-02-21T13:49:53.883Z,10.26
2023-02-21T13:55:27.231Z,10.12
2023-02-21T14:00:49.639Z,9.99
2023-02-21T14:06:32.231Z,9.81
2023-02-21T14:11:45.214Z,10.49
2023-02-21T14:16:52.220Z,9.82
2023-02-21T14:22:03.835Z,10.08
2023-02-21T14:27:37.475Z,10.14
2023-02-21T14:32:45.012Z,10.03
2023-02-21T14:37:56.130Z,9.91
2023-02-21T14:43:16.976Z,10.30
2023-02-21T14:48:34.033Z,10.40
2023-02-21T14:54:07.892Z,10.29
2023-02-21T14:59:28.095Z,10.09
2023-02-21T15:04:38.309Z,9.80
2023-02-21T15:09:44.223Z,10.05
2023-02-21T15:14:53.070Z,10.15
2023-02-21T15:20:06.335Z,10.10
2023-02-21T15:25:25.534Z,9.88
2023-02-21T15:30:39.198Z,9.95
2023-02-21T15:35:46.367Z,10.19
2023-02-21T15:40:51.164Z,9.47
2023-02-21T15:46:01.754Z,10.20
2023-02-21T15:51:11.348Z,8.25
2023-02-21T15:56:24.593Z,9.74
2023-02-21T16:01:28.649Z,10.07
2023-02-21T16:06:32.876Z,9.56
2023-02-21T16:11:41.963Z,9.42
2023-02-21T16:16:47.679Z,9.72
2023-02-21T16:21:51.192Z,9.93
2023-02-21T16:27:04.192Z,9.98
2023-02-21T16:32:18.432Z,9.61
2023-02-21T16:37:23.873Z,9.29
2023-02-21T16:42:26.681Z,9.82
2023-02-21T16:47:30.834Z,9.57
2023-02-21T16:52:33.618Z,9.97
2023-02-21T16:57:36.692Z,9.96
2023-02-21T17:02:41.076Z,9.96
2023-02-21T17:07:43.762Z,9.66
2023-02-21T17:12:46.698Z,9.62
2023-02-21T17:17:53.846Z,9.61
2023-02-21T17:22:59.005Z,9.36
2023-02-21T17:28:02.698Z,8.48
2023-02-21T17:33:09.501Z,8.48
2023-02-21T17:38:13.183Z,7.88
2023-02-21T17:43:17.075Z,9.53
2023-02-21T17:48:23.232Z,9.97
2023-02-21T17:53:31.888Z,9.98
2023-02-21T17:58:38.537Z,9.85
2023-02-21T18:03:44.487Z,8.14
2023-02-21T18:08:47.784Z,9.88
2023-02-21T18:13:51.250Z,9.88
2023-02-21T18:19:03.544Z,9.89
2023-02-21T18:24:14.812Z,9.85
2023-02-21T18:29:17.705Z,9.70
2023-02-21T18:34:35.352Z,8.57
2023-02-21T18:39:43.170Z,9.43
2023-02-21T18:45:30.878Z,9.83
2023-02-21T18:52:31.914Z,9.76
2023-02-21T19:16:30.947Z,9.75
2023-02-21T19:21:35.740Z,9.84
2023-02-21T19:26:39.234Z,9.81
2023-02-21T19:31:52.165Z,7.82
2023-02-21T19:37:07.742Z,8.71
2023-02-21T19:42:11.038Z,8.55
2023-02-21T19:47:15.599Z,8.56
2023-02-21T19:52:22.453Z,8.96
2023-02-21T19:57:25.786Z,8.28
2023-02-21T20:02:36.036Z,8.70
2023-02-21T20:07:38.964Z,9.85
2023-02-21T20:12:44.887Z,9.56
2023-02-21T20:17:50.825Z,9.71
2023-02-21T20:23:03.972Z,8.22
2023-02-21T20:28:21.127Z,8.83
2023-02-21T20:33:38.711Z,9.02
2023-02-21T20:38:42.468Z,7.38
2023-02-21T20:43:48.788Z,7.65
2023-02-21T20:48:59.287Z,9.19
2023-02-21T20:54:05.935Z,9.03
2023-02-21T20:59:16.000Z,9.27
2023-02-21T21:04:26.614Z,8.81
2023-02-21T21:09:34.271Z,8.12
2023-02-21T21:14:41.622Z,6.57
2023-02-21T21:19:50.558Z,8.64
2023-02-21T21:24:58.666Z,9.72
2023-02-21T21:30:22.890Z,8.91
2023-02-21T21:35:30.106Z,9.18
2023-02-21T21:40:33.591Z,9.68
2023-02-21T21:45:47.445Z,7.00
2023-02-21T21:50:55.028Z,8.57
2023-02-21T21:56:05.000Z,9.63
2023-02-21T22:01:17.628Z,9.69
2023-02-21T22:06:22.208Z,8.41
2023-02-21T22:11:25.657Z,8.87
2023-02-21T22:16:36.329Z,9.46
2023-02-21T22:21:48.600Z,9.18
2023-02-21T22:27:01.831Z,9.35
2023-02-21T22:32:12.801Z,8.23
2023-02-21T22:37:17.499Z,9.63
2023-02-21T22:42:23.315Z,8.29
2023-02-21T22:47:27.476Z,9.50
2023-02-21T22:52:32.564Z,9.46
2023-02-21T22:57:35.617Z,9.53
2023-02-21T23:02:49.153Z,9.29
2023-02-21T23:08:02.119Z,9.05
2023-02-21T23:13:04.917Z,9.41
2023-02-21T23:18:07.980Z,9.16
2023-02-21T23:23:20.256Z,7.26
2023-02-21T23:28:23.742Z,9.38
2023-02-21T23:33:29.076Z,8.07
2023-02-21T23:38:38.376Z,6.67
2023-02-21T23:43:41.803Z,8.70
2023-02-21T23:48:45.636Z,8.44
2023-02-21T23:53:52.425Z,9.07
2023-02-21T23:58:55.818Z,9.27
